Time;durP1;ratioP1;P1;durP2;ratioP2;P2;SDS_P1;SDS_P2;PMS_P1;PMS_P2;Temp;Humidity;BMP_temperature;BMP_pressure;BME280_temperature;BME280_humidity;BME280_pressure;Samples;Min_cycle;Max_cycle;Signal;HPM_P1;HPM_P2
2023/02/17 00:05:16;;;;;;;51.03;21.38;;;;;;;2.45;65.21;100638.91;30855363;28;96712;-76
2023/02/17 00:20:16;;;;;;;31.70;16.45;;;;;;;2.73;65.53;100635.16;30853469;28;96703;-76
2023/02/17 00:35:17;;;;;;;36.25;17.80;;;;;;;3.09;65.48;100638.75;30862983;28;97365;-76
2023/02/17 00:50:17;;;;;;;31.95;14.60;;;;;;;3.37;65.50;100632.31;30872847;28;97124;-76
2023/02/17 01:05:18;;;;;;;27.20;14.70;;;;;;;3.62;64.93;100608.59;30871282;28;96657;-73
2023/02/17 01:20:18;;;;;;;30.08;15.65;;;;;;;3.69;64.84;100602.75;30869589;28;97297;-73
2023/02/17 01:35:18;;;;;;;31.10;14.75;;;;;;;3.71;65.08;100585.00;30868159;28;96753;-65
2023/02/17 01:50:23;;;;;;;35.10;16.17;;;;;;;3.80;64.75;100580.00;30865920;28;97248;-71
2023/02/17 02:05:24;;;;;;;28.27;15.18;;;;;;;3.88;64.72;100559.16;30865158;28;96572;-73
2023/02/17 02:20:49;;;;;;;29.85;15.68;;;;;;;3.87;64.36;100534.63;30863448;28;96594;-72
2023/02/17 02:35:57;;;;;;;28.00;15.48;;;;;;;3.83;64.41;100509.44;30862233;28;96766;-78
2023/02/17 02:51:24;;;;;;;32.67;15.75;;;;;;;4.03;64.78;100497.38;30860667;28;97412;-77
2023/02/17 03:06:35;;;;;;;33.63;15.88;;;;;;;4.01;64.84;100483.44;30858569;28;96616;-77
2023/02/17 03:21:40;;;;;;;29.67;14.25;;;;;;;4.06;65.33;100472.56;30858152;28;96763;-78
2023/02/17 03:36:40;;;;;;;32.80;16.35;;;;;;;4.13;65.10;100478.16;30856564;28;97240;-77
2023/02/17 03:51:41;;;;;;;29.88;17.17;;;;;;;4.09;65.34;100479.38;30854602;28;97457;-76
2023/02/17 04:06:41;;;;;;;42.58;25.50;;;;;;;4.03;66.21;100460.44;30859898;28;96661;-69
2023/02/17 04:21:41;;;;;;;28.05;14.82;;;;;;;3.99;66.70;100453.75;30874709;28;96648;-78
2023/02/17 04:36:42;;;;;;;29.23;15.25;;;;;;;3.97;67.19;100431.09;30872308;28;97101;-76
2023/02/17 04:51:42;;;;;;;32.05;16.60;;;;;;;4.06;67.99;100418.03;30869399;28;96693;-73
2023/02/17 05:06:42;;;;;;;31.55;14.02;;;;;;;4.14;68.20;100406.00;30867845;28;96740;-70
2023/02/17 05:21:43;;;;;;;31.80;14.13;;;;;;;4.09;69.00;100397.63;30783116;28;97368;-75
2023/02/17 05:36:43;;;;;;;31.48;15.40;;;;;;;4.24;69.61;100384.06;30743750;28;96602;-74
2023/02/17 05:51:44;;;;;;;26.75;14.10;;;;;;;4.56;69.90;100367.38;30759183;28;97190;-72
2023/02/17 06:06:44;;;;;;;28.58;15.18;;;;;;;4.71;69.96;100380.28;30769751;28;97830;-67
2023/02/17 06:21:44;;;;;;;28.00;16.92;;;;;;;4.80;70.39;100379.53;30751083;28;97633;-71
2023/02/17 06:36:45;;;;;;;32.70;16.65;;;;;;;4.99;70.79;100388.53;30746150;28;99197;-67
2023/02/17 06:51:45;;;;;;;32.33;17.42;;;;;;;5.02;71.23;100377.72;30735932;28;97713;-67
2023/02/17 07:06:46;;;;;;;29.08;16.13;;;;;;;5.09;71.49;100363.84;30719303;28;97261;-69
2023/02/17 07:21:46;;;;;;;27.55;14.80;;;;;;;5.19;72.05;100371.00;30725080;28;97714;-66
2023/02/17 07:36:47;;;;;;;32.83;17.48;;;;;;;5.31;72.43;100353.28;30757367;28;97185;-63
2023/02/17 07:51:47;;;;;;;31.10;19.23;;;;;;;5.54;72.34;100338.06;30807196;28;96808;-68
2023/02/17 08:06:48;;;;;;;31.98;18.58;;;;;;;5.74;71.98;100345.06;30732261;28;97319;-68
2023/02/17 08:21:48;;;;;;;33.80;16.65;;;;;;;5.94;72.08;100329.25;30752138;28;97708;-67
2023/02/17 08:36:49;;;;;;;28.75;16.67;;;;;;;6.18;72.27;100328.03;30750892;28;96881;-65
2023/02/17 08:51:51;;;;;;;27.98;18.23;;;;;;;6.39;72.01;100325.28;30803881;28;97421;-64
2023/02/17 09:06:54;;;;;;;35.38;18.73;;;;;;;6.51;72.10;100312.75;30826223;28;97104;-68
2023/02/17 09:21:55;;;;;;;30.13;17.43;;;;;;;6.73;72.20;100316.88;30771081;28;96710;-67
2023/02/17 09:36:55;;;;;;;34.35;16.67;;;;;;;6.88;71.84;100311.97;30782778;28;98043;-68
2023/02/17 09:52:32;;;;;;;29.10;16.23;;;;;;;7.07;71.95;100287.25;30811572;28;97105;-65
2023/02/17 10:07:38;;;;;;;24.70;12.93;;;;;;;7.31;71.16;100273.47;30764164;28;97013;-67
2023/02/17 10:22:43;;;;;;;16.92;11.02;;;;;;;7.49;70.03;100254.97;30822602;28;100374;-67
2023/02/17 10:37:47;;;;;;;20.27;11.00;;;;;;;7.71;69.65;100231.66;30778769;28;97170;-64
2023/02/17 10:52:48;;;;;;;19.67;12.13;;;;;;;7.89;69.67;100208.63;30814725;28;96698;-67
2023/02/17 11:07:55;;;;;;;20.57;11.13;;;;;;;8.13;68.96;100178.81;30840144;28;96623;-64
2023/02/17 11:23:22;;;;;;;18.50;11.20;;;;;;;8.56;68.46;100143.63;30850299;28;97331;-68
2023/02/17 11:38:31;;;;;;;15.70;9.53;;;;;;;8.74;68.50;100122.28;30848492;28;97132;-65
2023/02/17 11:53:50;;;;;;;13.73;7.27;;;;;;;9.27;67.98;100091.88;30847078;28;96769;-66
2023/02/17 12:08:51;;;;;;;12.50;7.60;;;;;;;9.54;67.38;100050.00;30851759;28;97593;-64
2023/02/17 12:24:01;;;;;;;8.70;5.90;;;;;;;9.54;66.67;100022.56;30844065;28;97666;-66
2023/02/17 12:39:14;;;;;;;8.37;4.50;;;;;;;9.10;66.70;100011.28;30870323;28;98798;-67
2023/02/17 12:54:37;;;;;;;9.17;4.80;;;;;;;9.03;67.00;99985.53;30869434;28;96956;-67
2023/02/17 13:09:41;;;;;;;7.30;5.20;;;;;;;9.25;67.71;99966.28;30868477;28;96842;-71
2023/02/17 13:24:53;;;;;;;;;;;;;;;9.02;67.92;99928.91;30880594;28;96656;-67
2023/02/17 13:39:53;;;;;;;11.70;7.57;;;;;;;8.81;68.62;99908.97;30861848;28;96912;-69
2023/02/17 13:55:03;;;;;;;13.50;8.65;;;;;;;8.59;68.80;99891.84;30801887;28;97712;-67
2023/02/17 14:10:04;;;;;;;13.47;7.47;;;;;;;8.45;69.01;99852.72;30784983;28;97381;-67
2023/02/17 14:25:13;;;;;;;9.57;5.70;;;;;;;8.25;69.87;99805.19;30766000;28;96971;-67
2023/02/17 14:40:23;;;;;;;10.60;6.97;;;;;;;8.19;70.58;99789.09;30762919;28;97498;-67
2023/02/17 14:55:37;;;;;;;12.77;7.20;;;;;;;8.06;71.44;99763.88;30845209;28;97370;-68
2023/02/17 15:10:38;;;;;;;12.97;7.67;;;;;;;8.00;71.58;99737.22;30823927;28;97706;-68
2023/02/17 15:25:39;;;;;;;7.60;4.40;;;;;;;8.09;71.85;99688.44;30770981;28;96698;-67
2023/02/17 15:40:41;;;;;;;7.67;4.17;;;;;;;8.26;71.24;99642.34;30838638;28;97249;-68
2023/02/17 15:55:41;;;;;;;3.63;2.30;;;;;;;8.77;71.35;99643.88;30801523;28;97637;-67
2023/02/17 16:10:44;;;;;;;5.53;3.50;;;;;;;9.04;70.64;99642.59;30790171;28;97274;-68
2023/02/17 16:25:45;;;;;;;7.73;4.33;;;;;;;9.11;70.30;99662.16;30812617;28;96724;-67
2023/02/17 16:40:47;;;;;;;7.57;5.00;;;;;;;8.93;71.11;99650.97;30768985;28;97213;-67
2023/02/17 16:55:49;;;;;;;11.20;5.63;;;;;;;8.87;71.70;99651.66;30777567;28;97622;-68
2023/02/17 17:10:49;;;;;;;10.40;6.10;;;;;;;8.87;71.48;99654.31;30832431;28;96714;-69
2023/02/17 17:25:50;;;;;;;9.07;6.07;;;;;;;9.02;72.11;99673.84;30812745;28;96725;-74
2023/02/17 17:40:52;;;;;;;9.32;5.97;;;;;;;8.93;72.76;99643.00;30733027;28;97581;-70
2023/02/17 17:55:52;;;;;;;10.40;6.70;;;;;;;8.92;72.93;99655.44;30852427;28;97127;-68
2023/02/17 18:10:53;;;;;;;25.77;11.77;;;;;;;9.08;73.13;99672.31;30851181;28;97217;-68
2023/02/17 18:25:53;;;;;;;11.93;7.00;;;;;;;9.26;73.01;99654.28;30847387;28;98438;-69
2023/02/17 18:40:53;;;;;;;8.68;5.68;;;;;;;9.17;73.14;99643.88;30848053;28;97313;-68
2023/02/17 18:55:54;;;;;;;11.40;6.53;;;;;;;9.35;73.01;99620.50;30848391;28;96708;-66
2023/02/17 19:10:54;;;;;;;8.60;5.60;;;;;;;9.77;72.77;99629.84;30843750;28;97799;-71
2023/02/17 19:25:55;;;;;;;3.83;2.33;;;;;;;10.83;72.93;99635.09;30852729;28;97136;-71
2023/02/17 19:40:56;;;;;;;3.33;1.83;;;;;;;11.49;71.27;99660.06;30850248;28;98391;-70
2023/02/17 19:56:06;;;;;;;6.50;3.20;;;;;;;11.43;70.68;99698.19;30842949;28;97331;-70
2023/02/17 20:11:08;;;;;;;4.60;2.77;;;;;;;11.11;71.47;99711.75;30845161;28;97291;-70
2023/02/17 20:26:12;;;;;;;3.63;2.03;;;;;;;10.65;71.63;99715.41;30799927;28;96727;-70
2023/02/17 20:41:15;;;;;;;3.73;2.27;;;;;;;10.29;72.79;99696.59;30791632;28;97497;-70
2023/02/17 20:56:19;;;;;;;3.63;1.60;;;;;;;10.19;72.95;99685.38;30860764;28;97112;-70
2023/02/17 21:11:19;;;;;;;4.03;2.20;;;;;;;10.21;72.95;99686.00;30868090;28;96794;-68
2023/02/17 21:26:20;;;;;;;3.90;2.00;;;;;;;10.04;72.37;99699.47;30866339;28;97242;-69
2023/02/17 21:41:23;;;;;;;5.33;1.90;;;;;;;9.86;72.66;99726.38;30867075;28;97328;-68
2023/02/17 21:56:23;;;;;;;4.43;2.40;;;;;;;10.21;72.44;99752.56;30865128;28;96659;-69
2023/02/17 22:11:27;;;;;;;4.22;2.00;;;;;;;10.32;71.72;99776.13;30863779;28;97321;-70
2023/02/17 22:26:28;;;;;;;2.37;1.07;;;;;;;10.03;70.68;99817.56;30863144;28;96568;-69
2023/02/17 22:41:29;;;;;;;4.70;1.30;;;;;;;9.28;70.80;99821.56;30862250;28;96736;-69
2023/02/17 22:56:30;;;;;;;3.38;1.30;;;;;;;8.95;71.29;99806.53;30861397;28;97459;-68
2023/02/17 23:11:48;;;;;;;6.70;1.20;;;;;;;8.54;70.33;99861.50;30861115;28;97670;-69
2023/02/17 23:26:49;;;;;;;4.60;1.17;;;;;;;8.26;69.87;99867.06;30749472;28;97707;-69
2023/02/17 23:41:50;;;;;;;4.43;1.93;;;;;;;7.93;70.22;99854.56;30735854;28;96650;-71
2023/02/17 23:56:50;;;;;;;2.78;1.30;;;;;;;7.66;71.25;99868.88;30735155;28;97370;-72
